Jonesboro Municipal Airport
KJBR : now visible

Airfield :











YOU CAN JOIN US ON...

 
LOGIN :

Register | Disclaimer

   EN    FR    IT 

 









Legend :    VFR   Marginal VFR   IFR   Intensive IFR   Very Intensive IFR
Visi :
Ceiling :
>= 8 km
>= 3000ft
5 to 8 km
1000 to 3000 ft
1500m to 5 km
500 to 1000 ft
800 to 1500m
200 to 500 ft
< 800m
< 200 ft
Symbols :   Thunderstorms  Fog  Heavy snow  Heavy precipitations  Wind > 20 kt






- Airport Elevation : 262 ft
- IATA code : JBR


KJBR - Jonesboro Municipal

CURRENT METAR :
  • 220953Z AUTO 35007KT 10SM CLR 04/00 A3022 RMK AO2 SLP234 T00440000 TSNO $

EXPIRED METARs :
  • 220853Z AUTO 35003KT 10SM CLR 05/M01 A3021 RMK AO2 SLP230 T00501011 55002 TSNO $
  • 220753Z AUTO 33006KT 10SM CLR 06/M01 A3020 RMK AO2 SLP228 T00561011 TSNO $

TAF KJBR
Valid from the 22 at 06:00 until the 23 at 06:00 UTC


220520Z 2206/2306 33003KT P6SM SCT060 BKN250
FM230000 10004KT P6SM OVC250
FM230400 09003KT P6SM OVC100
KZME FIR / North America



MET'MAP, your aeronautical weather chart ! - Copyright ORBIFLY December 2007 - Disclaimer

ORBIFLY MET'MAP TEAM :

Programming & Development : Alexandra Zaïnal
Concept & original design : Baudouin d'Aumeries
Assistance for programming : Marc-Olivier Méhu
Technical & hardware support : Manuel Goepfert

Contact : metmap@orbifly.com




SOURCES & CREDITS :

   NOAA       Earth
Advisory